Time;durP1;ratioP1;P1;durP2;ratioP2;P2;SDS_P1;SDS_P2;PMS_P1;PMS_P2;Temp;Humidity;BMP_temperature;BMP_pressure;BME280_temperature;BME280_humidity;BME280_pressure;Samples;Min_cycle;Max_cycle;Signal;HPM_P1;HPM_P2
2023/07/16 00:00:45;;;;;;;3.50;3.00;;;20.20;99.90;;;;;;5055430;28;20265;-80
2023/07/16 00:03:10;;;;;;;3.50;3.15;;;20.20;99.90;;;;;;5056843;28;20189;-81
2023/07/16 00:05:39;;;;;;;4.90;3.33;;;20.10;99.90;;;;;;5131289;22;20238;-79
2023/07/16 00:08:05;;;;;;;3.30;2.95;;;20.10;99.90;;;;;;5097506;28;20173;-79
2023/07/16 00:10:34;;;;;;;3.43;2.80;;;20.00;99.90;;;;;;5097839;28;20176;-79
2023/07/16 00:13:00;;;;;;;3.70;3.20;;;20.00;99.90;;;;;;5099088;28;20188;-80
2023/07/16 00:15:25;;;;;;;4.28;3.10;;;20.00;99.90;;;;;;5098177;28;20196;-78
2023/07/16 00:17:51;;;;;;;3.60;3.30;;;20.00;99.90;;;;;;5097803;28;20208;-79
2023/07/16 00:20:16;;;;;;;4.35;3.20;;;20.00;99.90;;;;;;5097989;28;20258;-78
2023/07/16 00:22:42;;;;;;;3.65;3.35;;;20.00;99.90;;;;;;5099830;28;20195;-80
2023/07/16 00:25:08;;;;;;;3.30;3.00;;;19.90;99.90;;;;;;5097301;28;20253;-79
2023/07/16 00:27:33;;;;;;;3.72;3.10;;;19.90;99.90;;;;;;5101610;28;20714;-79
2023/07/16 00:29:59;;;;;;;3.70;3.33;;;19.90;99.90;;;;;;5100470;28;20240;-79
2023/07/16 00:32:24;;;;;;;3.20;2.85;;;19.90;99.90;;;;;;5099118;28;20181;-80
2023/07/16 00:34:50;;;;;;;3.83;3.40;;;19.90;99.90;;;;;;5095390;28;20195;-79
2023/07/16 00:37:16;;;;;;;3.72;3.33;;;19.90;99.90;;;;;;5102104;28;20567;-79
2023/07/16 00:39:41;;;;;;;3.75;2.95;;;20.00;99.90;;;;;;5101096;28;20705;-80
2023/07/16 00:42:07;;;;;;;4.13;3.17;;;19.90;99.90;;;;;;5101512;28;20165;-80
2023/07/16 00:44:32;;;;;;;3.50;3.20;;;19.90;99.90;;;;;;5081255;28;20195;-79
2023/07/16 00:46:58;;;;;;;3.40;3.00;;;19.90;99.90;;;;;;5081992;28;20165;-79
2023/07/16 00:49:24;;;;;;;3.50;2.80;;;19.90;99.90;;;;;;5081506;28;20193;-80
2023/07/16 00:51:51;;;;;;;3.20;2.90;;;20.00;99.90;;;;;;5080950;28;20176;-79
2023/07/16 00:54:17;;;;;;;3.67;3.00;;;20.00;99.90;;;;;;5082162;28;20276;-78
2023/07/16 00:56:43;;;;;;;3.20;2.65;;;20.00;99.90;;;;;;5082502;28;20192;-79
2023/07/16 00:59:09;;;;;;;2.90;2.53;;;19.90;99.90;;;;;;5080723;28;20173;-79
2023/07/16 01:01:34;;;;;;;3.28;2.95;;;19.90;99.90;;;;;;5080803;28;20169;-79
2023/07/16 01:04:00;;;;;;;3.45;2.67;;;19.90;99.90;;;;;;5080593;28;20174;-79
2023/07/16 01:06:35;;;;;;;3.25;2.80;;;19.90;99.90;;;;;;5082273;28;20207;-79
2023/07/16 01:09:16;;;;;;;3.42;2.60;;;19.90;99.90;;;;;;5084335;28;20176;-79
2023/07/16 01:11:43;;;;;;;3.83;2.78;;;19.80;99.90;;;;;;5093948;28;20185;-78
2023/07/16 01:14:10;;;;;;;3.72;2.63;;;19.80;99.90;;;;;;5101326;28;20221;-79
2023/07/16 01:16:35;;;;;;;2.72;2.53;;;19.80;99.90;;;;;;5101507;28;20196;-79
2023/07/16 01:19:01;;;;;;;2.90;2.60;;;19.80;99.90;;;;;;5085414;28;20180;-79
2023/07/16 01:21:35;;;;;;;4.38;2.50;;;19.70;99.90;;;;;;5080235;28;20772;-79
2023/07/16 01:24:40;;;;;;;3.95;2.53;;;19.60;99.90;;;;;;5081214;28;20176;-79
2023/07/16 01:27:09;;;;;;;2.75;2.42;;;19.60;99.90;;;;;;5080717;28;20203;-79
2023/07/16 01:29:43;;;;;;;2.58;2.28;;;19.60;99.90;;;;;;5081189;28;20179;-78
2023/07/16 01:32:11;;;;;;;4.05;2.60;;;19.60;99.90;;;;;;5081226;28;20176;-78
2023/07/16 01:34:38;;;;;;;2.50;2.30;;;19.60;99.90;;;;;;5081531;28;20610;-79
2023/07/16 01:37:04;;;;;;;2.43;2.10;;;19.50;99.90;;;;;;5080905;28;20201;-79
2023/07/16 01:39:32;;;;;;;2.63;2.42;;;19.60;99.90;;;;;;5085956;28;20171;-78
2023/07/16 01:41:58;;;;;;;3.13;2.40;;;19.60;99.90;;;;;;5093147;28;20193;-79
2023/07/16 01:44:23;;;;;;;2.60;2.40;;;19.50;99.90;;;;;;5099052;28;20192;-80
2023/07/16 01:47:05;;;;;;;3.33;2.40;;;19.50;99.90;;;;;;5100752;28;20198;-78
2023/07/16 01:49:31;;;;;;;2.40;2.10;;;19.50;99.90;;;;;;5101560;28;20177;-79
2023/07/16 01:51:57;;;;;;;2.75;2.20;;;19.50;99.90;;;;;;5100355;28;20172;-79
2023/07/16 01:54:22;;;;;;;2.40;2.10;;;19.60;99.90;;;;;;5100684;28;20195;-79
2023/07/16 01:56:48;;;;;;;2.30;2.10;;;19.50;99.90;;;;;;5099663;28;20246;-80
2023/07/16 01:59:13;;;;;;;2.40;2.20;;;19.50;99.90;;;;;;5101190;28;20179;-79
2023/07/16 02:01:39;;;;;;;2.63;1.97;;;19.50;99.90;;;;;;5099885;28;20172;-79
2023/07/16 02:04:04;;;;;;;2.33;2.00;;;19.40;99.90;;;;;;5099151;28;20184;-80
2023/07/16 02:06:30;;;;;;;2.15;1.95;;;19.40;99.90;;;;;;5099652;28;20214;-78
2023/07/16 02:08:55;;;;;;;2.33;2.10;;;19.40;99.90;;;;;;5099589;28;20164;-79
2023/07/16 02:11:21;;;;;;;3.13;2.00;;;19.50;99.90;;;;;;5099021;28;20172;-79
2023/07/16 02:13:47;;;;;;;2.70;2.10;;;19.40;99.90;;;;;;5099860;28;20267;-80
2023/07/16 02:16:12;;;;;;;3.17;2.27;;;19.40;99.90;;;;;;5100149;28;20175;-79
2023/07/16 02:18:38;;;;;;;1.90;1.77;;;19.40;99.90;;;;;;5100277;28;20210;-79
2023/07/16 02:21:04;;;;;;;2.40;1.90;;;19.40;99.90;;;;;;5099001;28;20169;-78
2023/07/16 02:23:29;;;;;;;2.38;1.85;;;19.40;99.90;;;;;;5100389;28;20174;-80
2023/07/16 02:25:55;;;;;;;3.10;2.00;;;19.30;99.90;;;;;;5100373;28;20188;-79
2023/07/16 02:28:20;;;;;;;2.30;2.10;;;19.30;99.90;;;;;;5101044;28;20172;-78
2023/07/16 02:30:46;;;;;;;2.30;2.10;;;19.30;99.90;;;;;;5100775;28;20176;-79
2023/07/16 02:33:11;;;;;;;2.43;1.90;;;19.20;99.90;;;;;;5103188;28;20176;-79
2023/07/16 02:35:37;;;;;;;2.40;2.20;;;19.20;99.90;;;;;;5101165;28;20202;-79
2023/07/16 02:38:03;;;;;;;2.83;1.90;;;19.20;99.90;;;;;;5100613;28;20261;-79
2023/07/16 02:40:28;;;;;;;2.20;2.00;;;19.20;99.90;;;;;;5098023;28;20175;-79
2023/07/16 02:42:54;;;;;;;3.47;1.87;;;19.20;99.90;;;;;;5089060;28;20169;-80
2023/07/16 02:45:20;;;;;;;4.57;2.33;;;19.20;99.90;;;;;;5081189;28;20296;-78
2023/07/16 02:47:45;;;;;;;3.40;2.00;;;19.20;99.90;;;;;;5081327;28;20662;-78
2023/07/16 02:50:11;;;;;;;2.97;1.80;;;19.20;99.90;;;;;;5080375;28;20334;-79
2023/07/16 02:52:36;;;;;;;4.83;2.00;;;19.20;99.90;;;;;;5080195;28;20177;-79
2023/07/16 02:55:02;;;;;;;3.07;2.10;;;19.10;99.90;;;;;;5080630;28;20306;-80
2023/07/16 02:57:28;;;;;;;3.43;1.70;;;19.00;99.90;;;;;;5081616;28;20287;-79
2023/07/16 02:59:53;;;;;;;4.33;1.90;;;19.10;99.90;;;;;;5080602;28;20174;-79
2023/07/16 03:02:19;;;;;;;2.70;2.10;;;19.10;99.90;;;;;;5081473;28;20180;-79
2023/07/16 03:04:45;;;;;;;2.43;2.03;;;19.00;99.90;;;;;;5080842;28;20205;-80
2023/07/16 03:07:10;;;;;;;3.07;1.80;;;19.10;99.90;;;;;;5081593;28;20264;-79
2023/07/16 03:09:36;;;;;;;4.77;2.40;;;19.00;99.90;;;;;;5079454;28;20184;-76
2023/07/16 03:12:01;;;;;;;2.37;1.77;;;19.00;99.90;;;;;;5079987;28;20231;-79
2023/07/16 03:14:27;;;;;;;2.17;1.90;;;18.90;99.90;;;;;;5079804;28;20200;-80
2023/07/16 03:16:52;;;;;;;4.07;1.97;;;18.90;99.90;;;;;;5079798;28;20201;-79
2023/07/16 03:19:18;;;;;;;3.07;1.80;;;18.90;99.90;;;;;;5080821;28;20192;-79
2023/07/16 03:21:45;;;;;;;2.93;2.10;;;18.90;99.90;;;;;;5079626;28;20169;-79
2023/07/16 03:24:12;;;;;;;2.53;1.87;;;18.90;99.90;;;;;;5081020;28;20189;-79
2023/07/16 03:26:37;;;;;;;2.00;1.80;;;18.70;99.90;;;;;;5080381;28;20298;-79
2023/07/16 03:29:03;;;;;;;3.50;2.00;;;18.70;99.90;;;;;;5080448;28;20187;-79
2023/07/16 03:31:28;;;;;;;3.30;1.70;;;18.70;99.90;;;;;;5079576;28;20240;-80
2023/07/16 03:33:54;;;;;;;2.40;1.67;;;18.70;99.90;;;;;;5080511;28;20176;-80
2023/07/16 03:36:19;;;;;;;3.47;2.17;;;18.70;99.90;;;;;;5080669;28;20172;-79
2023/07/16 03:38:45;;;;;;;3.37;1.80;;;18.70;99.90;;;;;;5080475;28;20177;-79
2023/07/16 03:41:11;;;;;;;3.30;1.77;;;18.70;99.90;;;;;;5079881;28;20241;-79
2023/07/16 03:43:36;;;;;;;2.03;1.70;;;18.60;99.90;;;;;;5080059;28;20241;-80
2023/07/16 03:46:02;;;;;;;3.03;1.73;;;18.60;99.90;;;;;;5079393;28;20215;-79
2023/07/16 03:48:27;;;;;;;3.17;2.13;;;18.60;99.90;;;;;;5080259;28;20169;-80
2023/07/16 03:50:53;;;;;;;2.53;2.00;;;18.50;99.90;;;;;;5080495;28;20177;-79
2023/07/16 03:53:18;;;;;;;3.90;2.00;;;18.50;99.90;;;;;;5079900;28;20180;-79
2023/07/16 03:55:44;;;;;;;2.60;1.80;;;18.50;99.90;;;;;;5079409;28;20208;-79
2023/07/16 03:58:09;;;;;;;5.20;2.10;;;18.50;99.90;;;;;;5080646;28;20235;-79
2023/07/16 04:00:35;;;;;;;3.47;2.37;;;18.50;99.90;;;;;;5079292;28;20184;-80
2023/07/16 04:03:01;;;;;;;1.97;1.73;;;18.50;99.90;;;;;;5083607;28;20195;-79
2023/07/16 04:05:26;;;;;;;3.80;1.90;;;18.50;99.90;;;;;;5084894;28;20216;-79
2023/07/16 04:07:52;;;;;;;3.17;1.97;;;18.50;99.90;;;;;;5083548;28;20173;-79
2023/07/16 04:10:17;;;;;;;4.40;2.30;;;18.50;99.90;;;;;;5101784;28;20176;-79
2023/07/16 04:12:43;;;;;;;3.20;2.00;;;18.50;99.90;;;;;;5104233;28;20178;-79
2023/07/16 04:15:10;;;;;;;2.97;2.10;;;18.50;99.90;;;;;;5104613;28;20253;-79
2023/07/16 04:17:36;;;;;;;2.33;1.80;;;18.60;99.90;;;;;;5102952;28;20207;-80
2023/07/16 04:20:02;;;;;;;3.70;2.20;;;18.50;99.90;;;;;;5102776;28;20267;-78
2023/07/16 04:22:28;;;;;;;2.40;2.07;;;18.50;99.90;;;;;;5103761;28;20218;-79
2023/07/16 04:24:53;;;;;;;3.13;2.20;;;18.50;99.90;;;;;;5103390;28;20193;-79
2023/07/16 04:27:19;;;;;;;3.57;1.90;;;18.40;99.90;;;;;;5105011;28;20184;-79
2023/07/16 04:29:45;;;;;;;4.17;2.00;;;18.40;99.90;;;;;;5103677;28;20622;-79
2023/07/16 04:32:10;;;;;;;2.87;2.17;;;18.40;99.90;;;;;;5103835;28;20275;-80
2023/07/16 04:34:36;;;;;;;2.23;1.80;;;18.30;99.90;;;;;;5104338;28;20189;-79
2023/07/16 04:37:01;;;;;;;4.37;2.10;;;18.30;99.90;;;;;;5104659;28;20260;-79
2023/07/16 04:39:27;;;;;;;2.37;1.93;;;18.30;99.90;;;;;;5104645;28;20184;-79
2023/07/16 04:41:52;;;;;;;3.70;2.20;;;18.30;99.90;;;;;;5102812;28;20259;-80
2023/07/16 04:44:18;;;;;;;2.57;2.00;;;18.20;99.90;;;;;;5104293;28;20203;-79
2023/07/16 04:46:43;;;;;;;2.60;2.00;;;18.10;99.90;;;;;;5104553;28;20235;-79
2023/07/16 04:49:09;;;;;;;4.10;2.00;;;18.10;99.90;;;;;;5104524;28;20188;-79
2023/07/16 04:51:35;;;;;;;2.97;2.23;;;18.10;99.90;;;;;;5102133;28;20244;-79
2023/07/16 04:54:00;;;;;;;3.20;2.10;;;18.20;99.90;;;;;;5096054;28;20667;-79
2023/07/16 04:56:26;;;;;;;3.70;2.20;;;18.20;99.90;;;;;;5094559;28;20179;-79
2023/07/16 04:58:51;;;;;;;4.10;1.90;;;18.20;99.90;;;;;;5094972;28;20544;-82
2023/07/16 05:01:17;;;;;;;2.50;1.90;;;18.20;99.90;;;;;;5094991;28;20550;-82
2023/07/16 05:03:42;;;;;;;2.53;2.00;;;18.20;99.90;;;;;;5094351;28;20168;-80
2023/07/16 05:06:09;;;;;;;3.93;2.10;;;18.20;99.90;;;;;;5094318;28;20204;-81
2023/07/16 05:08:34;;;;;;;3.73;1.90;;;18.20;99.90;;;;;;5094298;28;20176;-81
2023/07/16 05:11:01;;;;;;;3.37;2.10;;;18.20;99.90;;;;;;5094193;28;20176;-80
2023/07/16 05:13:27;;;;;;;3.77;2.23;;;18.20;99.90;;;;;;5095815;28;20177;-80
2023/07/16 05:15:52;;;;;;;4.27;1.97;;;18.30;99.90;;;;;;5094190;28;20291;-79
2023/07/16 05:18:18;;;;;;;3.17;2.00;;;18.30;99.90;;;;;;5095520;28;20200;-77
2023/07/16 05:20:47;;;;;;;2.80;2.00;;;18.40;99.90;;;;;;5093847;28;20172;-79
2023/07/16 05:23:12;;;;;;;4.77;2.00;;;18.40;99.90;;;;;;5095182;28;20230;-79
2023/07/16 05:25:38;;;;;;;4.93;1.90;;;18.40;99.90;;;;;;5095392;28;20200;-79
2023/07/16 05:28:04;;;;;;;3.30;2.10;;;18.40;99.90;;;;;;5094028;28;20619;-79
2023/07/16 05:30:29;;;;;;;3.23;2.00;;;18.40;99.90;;;;;;5095115;28;20183;-82
2023/07/16 05:32:55;;;;;;;3.57;2.17;;;18.40;99.90;;;;;;5093852;28;20545;-81
2023/07/16 05:35:20;;;;;;;2.97;1.93;;;18.40;99.90;;;;;;5093388;28;20200;-80
2023/07/16 05:37:46;;;;;;;4.67;2.00;;;18.40;99.90;;;;;;5094672;28;20196;-82
2023/07/16 05:40:11;;;;;;;3.83;2.10;;;18.40;99.90;;;;;;5094310;28;20534;-81
2023/07/16 05:42:37;;;;;;;3.90;2.07;;;18.40;99.90;;;;;;5093461;28;20179;-81
2023/07/16 05:45:03;;;;;;;5.30;2.07;;;18.40;50.70;;;;;;5093613;28;20698;-80
2023/07/16 05:47:29;;;;;;;2.73;1.83;;;18.40;38.30;;;;;;5093130;28;20172;-81
2023/07/16 05:49:54;;;;;;;5.27;1.93;;;18.50;99.90;;;;;;5092494;28;20309;-80
2023/07/16 05:52:20;;;;;;;2.93;1.80;;;18.60;93.80;;;;;;5094252;28;20172;-81
2023/07/16 05:54:45;;;;;;;2.97;1.83;;;18.60;1.00;;;;;;5093281;28;20200;-79
2023/07/16 05:57:11;;;;;;;3.87;1.80;;;18.60;1.00;;;;;;5093785;28;20568;-79
2023/07/16 05:59:37;;;;;;;3.97;1.87;;;18.60;1.00;;;;;;5094216;28;20562;-79
2023/07/16 06:02:03;;;;;;;2.97;1.70;;;18.50;1.00;;;;;;5093282;28;20221;-79
2023/07/16 06:04:29;;;;;;;2.80;2.07;;;18.60;1.00;;;;;;5114657;22;20200;-80
2023/07/16 06:06:56;;;;;;;4.50;1.97;;;18.60;1.00;;;;;;5038521;28;20234;-79
2023/07/16 06:09:21;;;;;;;3.07;1.80;;;18.70;1.00;;;;;;5056338;28;20252;-80
2023/07/16 06:11:47;;;;;;;4.97;2.00;;;18.70;1.00;;;;;;5038133;28;20205;-80
2023/07/16 06:14:13;;;;;;;3.10;1.80;;;18.80;1.00;;;;;;5038227;28;20173;-80
2023/07/16 06:16:38;;;;;;;4.00;1.80;;;19.00;1.00;;;;;;5037651;28;20170;-80
2023/07/16 06:19:04;;;;;;;3.17;2.00;;;18.90;99.90;;;;;;5056450;28;20169;-80
2023/07/16 06:21:30;;;;;;;3.70;1.70;;;19.00;99.90;;;;;;5055276;28;20193;-80
2023/07/16 06:23:55;;;;;;;2.33;1.80;;;19.10;99.90;;;;;;5037056;28;20169;-80
2023/07/16 06:26:21;;;;;;;4.47;1.80;;;19.20;99.90;;;;;;5055831;28;20186;-80
2023/07/16 06:28:49;;;;;;;3.23;1.83;;;19.20;99.90;;;;;;5055821;28;20170;-80
2023/07/16 06:31:15;;;;;;;2.77;2.37;;;19.30;99.90;;;;;;5054420;28;20177;-80
2023/07/16 06:33:41;;;;;;;3.43;1.70;;;19.30;21.90;;;;;;5055268;28;20169;-80
2023/07/16 06:36:06;;;;;;;2.67;1.70;;;19.30;1.00;;;;;;5037282;28;20255;-80
2023/07/16 06:38:32;;;;;;;2.80;1.60;;;19.40;99.90;;;;;;5037130;28;20233;-80
2023/07/16 06:40:57;;;;;;;2.47;1.83;;;19.40;1.00;;;;;;5036890;28;20174;-81
2023/07/16 06:43:23;;;;;;;3.13;1.80;;;19.40;1.00;;;;;;5036772;28;20276;-82
2023/07/16 06:45:50;;;;;;;3.70;1.60;;;19.40;99.90;;;;;;5052995;28;20185;-83
2023/07/16 06:48:16;;;;;;;3.93;1.70;;;19.60;1.00;;;;;;5053114;28;20177;-83
2023/07/16 06:50:42;;;;;;;4.30;1.93;;;19.70;1.00;;;;;;5034485;28;20185;-84
2023/07/16 06:53:07;;;;;;;3.33;1.80;;;19.90;1.00;;;;;;5035155;28;20549;-84
2023/07/16 06:55:33;;;;;;;2.60;1.57;;;19.90;1.00;;;;;;5052925;28;20197;-83
2023/07/16 06:58:00;;;;;;;2.93;1.87;;;19.80;99.90;;;;;;5034935;28;20201;-83
2023/07/16 07:00:25;;;;;;;3.40;1.80;;;19.80;99.90;;;;;;5052596;28;20184;-83
2023/07/16 07:02:51;;;;;;;4.70;1.80;;;19.90;1.00;;;;;;5034824;28;20173;-84
2023/07/16 07:05:16;;;;;;;3.80;1.67;;;19.90;1.00;;;;;;5034720;28;20271;-84
2023/07/16 07:07:43;;;;;;;3.37;1.70;;;19.90;1.00;;;;;;5035034;28;20182;-83
2023/07/16 07:10:09;;;;;;;4.53;1.80;;;19.90;99.90;;;;;;5050332;28;20192;-83
2023/07/16 07:12:37;;;;;;;5.60;1.73;;;20.00;1.00;;;;;;5047778;28;20547;-83
2023/07/16 07:15:06;;;;;;;2.43;1.80;;;20.00;99.90;;;;;;5030209;28;20671;-80
2023/07/16 07:17:32;;;;;;;2.27;1.60;;;19.90;99.90;;;;;;5034328;28;20331;-79
2023/07/16 07:19:58;;;;;;;4.25;1.70;;;20.00;99.90;;;;;;5034198;28;20189;-79
2023/07/16 07:22:23;;;;;;;3.03;1.60;;;20.10;99.90;;;;;;5052586;28;20173;-79
2023/07/16 07:24:49;;;;;;;2.38;1.60;;;20.10;1.00;;;;;;5034527;28;20566;-79
2023/07/16 07:27:15;;;;;;;3.58;1.85;;;20.10;99.90;;;;;;5052205;28;20446;-77
2023/07/16 07:29:40;;;;;;;4.15;1.77;;;20.10;99.90;;;;;;5040127;28;20182;-77
2023/07/16 07:32:06;;;;;;;4.53;2.05;;;20.00;1.00;;;;;;5033489;28;20178;-79
2023/07/16 07:34:32;;;;;;;4.40;1.83;;;20.10;1.00;;;;;;5032995;28;20231;-79
2023/07/16 07:36:57;;;;;;;4.93;2.33;;;20.10;1.00;;;;;;5015358;28;20206;-79
2023/07/16 07:39:23;;;;;;;2.87;1.87;;;20.20;52.50;;;;;;5033503;28;20233;-79
2023/07/16 07:41:48;;;;;;;4.83;2.00;;;20.20;1.00;;;;;;5014885;28;20308;-79
2023/07/16 07:44:14;;;;;;;5.67;1.60;;;20.20;1.00;;;;;;5032828;28;20193;-78
2023/07/16 07:46:40;;;;;;;5.15;1.90;;;20.30;1.00;;;;;;5032947;28;20169;-79
2023/07/16 07:49:05;;;;;;;4.47;2.08;;;20.30;81.50;;;;;;5014753;28;20273;-79
2023/07/16 07:51:31;;;;;;;3.72;1.70;;;20.50;29.80;;;;;;5032503;28;20228;-79
2023/07/16 07:53:56;;;;;;;3.60;1.80;;;20.60;99.90;;;;;;5032539;28;20189;-80
2023/07/16 07:56:22;;;;;;;5.72;2.20;;;20.60;1.00;;;;;;5032587;28;20190;-80
2023/07/16 07:58:47;;;;;;;2.65;1.73;;;20.70;1.00;;;;;;5015010;28;20576;-79
2023/07/16 08:01:13;;;;;;;3.72;2.00;;;20.90;1.00;;;;;;5031821;28;20171;-79
2023/07/16 08:03:38;;;;;;;4.85;1.85;;;20.90;1.00;;;;;;5014732;28;20173;-79
2023/07/16 08:06:04;;;;;;;2.38;1.52;;;21.00;99.90;;;;;;5014481;28;20206;-80
2023/07/16 08:08:29;;;;;;;3.15;1.48;;;21.00;78.70;;;;;;5032431;28;20202;-79
2023/07/16 08:10:55;;;;;;;2.55;1.50;;;20.90;1.00;;;;;;5031868;28;20182;-80
2023/07/16 08:13:21;;;;;;;2.97;1.90;;;20.90;99.90;;;;;;5032354;28;20174;-79
2023/07/16 08:15:47;;;;;;;3.03;1.98;;;20.80;44.00;;;;;;5032036;28;20193;-80
2023/07/16 08:18:13;;;;;;;4.95;1.90;;;20.80;99.90;;;;;;5032419;28;20244;-79
2023/07/16 08:20:40;;;;;;;3.60;1.65;;;20.90;99.90;;;;;;5031702;28;20170;-79
2023/07/16 08:23:06;;;;;;;3.25;1.70;;;20.70;99.90;;;;;;5032002;28;20645;-79
2023/07/16 08:25:32;;;;;;;4.55;1.58;;;20.50;99.90;;;;;;5014521;28;20286;-80
2023/07/16 08:27:57;;;;;;;3.65;1.73;;;20.50;1.00;;;;;;5032439;28;20517;-80
2023/07/16 08:30:23;;;;;;;5.20;1.90;;;20.50;1.00;;;;;;5013626;28;20205;-78
2023/07/16 08:32:48;;;;;;;3.83;1.60;;;20.40;1.00;;;;;;5032675;28;20232;-79
2023/07/16 08:35:16;;;;;;;1.77;1.63;;;20.40;99.90;;;;;;5014994;28;20213;-79
2023/07/16 08:37:45;;;;;;;4.30;1.58;;;20.40;1.00;;;;;;5032640;28;20206;-79
2023/07/16 08:40:12;;;;;;;4.63;1.95;;;20.40;1.00;;;;;;5040350;28;20162;-79
2023/07/16 08:42:39;;;;;;;2.58;1.80;;;20.30;1.00;;;;;;5034332;28;20204;-79
2023/07/16 08:45:08;;;;;;;3.20;1.80;;;20.50;1.00;;;;;;5034522;28;20204;-78
2023/07/16 08:47:34;;;;;;;2.70;1.65;;;20.50;99.90;;;;;;5035271;28;20224;-79
2023/07/16 08:50:01;;;;;;;3.85;1.92;;;20.50;1.00;;;;;;5037884;28;20224;-78
2023/07/16 08:52:27;;;;;;;3.47;1.92;;;20.90;99.90;;;;;;5038478;28;20177;-79
2023/07/16 08:54:53;;;;;;;3.08;1.80;;;21.40;99.90;;;;;;5056169;28;20263;-79
2023/07/16 08:57:20;;;;;;;2.83;1.80;;;21.80;1.00;;;;;;5038182;28;20254;-80
2023/07/16 08:59:48;;;;;;;2.42;2.00;;;22.10;99.90;;;;;;5055294;28;20678;-79
2023/07/16 09:02:18;;;;;;;2.70;1.75;;;21.90;99.90;;;;;;5037715;28;20170;-81
2023/07/16 09:04:48;;;;;;;3.83;2.00;;;21.90;99.90;;;;;;5037322;28;20208;-81
2023/07/16 09:07:14;;;;;;;4.20;2.00;;;22.10;99.90;;;;;;5055782;28;20162;-80
2023/07/16 09:09:40;;;;;;;4.90;2.22;;;22.40;99.90;;;;;;5037156;28;20174;-81
2023/07/16 09:12:06;;;;;;;6.28;2.10;;;22.50;99.90;;;;;;5055030;28;20173;-82
2023/07/16 09:14:32;;;;;;;3.65;2.38;;;22.70;99.90;;;;;;5037503;28;20177;-82
2023/07/16 09:16:57;;;;;;;5.53;2.33;;;22.50;99.90;;;;;;5055181;28;20227;-80
2023/07/16 09:19:25;;;;;;;3.33;1.98;;;22.40;99.90;;;;;;5037616;28;20193;-81
2023/07/16 09:21:51;;;;;;;3.97;2.13;;;22.50;99.90;;;;;;5054134;28;20192;-82
2023/07/16 09:24:18;;;;;;;6.93;2.33;;;22.70;99.90;;;;;;5054512;28;20696;-81
2023/07/16 09:26:51;;;;;;;2.75;1.73;;;22.80;8.10;;;;;;5036573;28;20667;-82
2023/07/16 09:29:17;;;;;;;5.20;2.28;;;23.00;1.00;;;;;;5043048;28;20174;-82
2023/07/16 09:31:56;;;;;;;3.40;1.90;;;22.90;1.00;;;;;;5023245;28;20265;-82
2023/07/16 09:34:22;;;;;;;3.40;1.90;;;22.90;15.20;;;;;;5034429;28;20253;-82
2023/07/16 09:36:51;;;;;;;4.20;2.20;;;23.00;15.20;;;;;;5034128;28;20305;-82
2023/07/16 09:39:20;;;;;;;3.85;2.10;;;23.30;1.00;;;;;;5016469;28;20170;-82
2023/07/16 09:41:48;;;;;;;5.43;2.22;;;23.10;1.00;;;;;;5033839;28;20170;-79
2023/07/16 09:44:14;;;;;;;3.45;1.90;;;23.30;1.00;;;;;;5034791;28;20174;-80
2023/07/16 09:46:40;;;;;;;4.50;1.98;;;23.70;1.00;;;;;;5017071;28;20225;-80
2023/07/16 09:49:07;;;;;;;3.47;1.90;;;23.40;1.00;;;;;;5017059;28;20182;-79
2023/07/16 09:51:35;;;;;;;4.30;2.13;;;23.40;1.00;;;;;;5016095;28;20175;-80
2023/07/16 09:54:02;;;;;;;3.25;2.17;;;23.40;1.00;;;;;;5016769;28;20170;-80
2023/07/16 09:56:38;;;;;;;4.45;2.67;;;23.70;1.00;;;;;;5034446;28;20197;-80
2023/07/16 09:59:09;;;;;;;3.20;2.00;;;23.90;1.00;;;;;;5020084;28;20189;-80
2023/07/16 10:01:38;;;;;;;5.22;2.30;;;24.10;1.00;;;;;;5032873;28;20202;-79
2023/07/16 10:04:42;;;;;;;3.45;2.10;;;24.30;1.00;;;;;;5050132;28;20166;-81
2023/07/16 10:07:22;;;;;;;4.30;2.03;;;24.20;1.00;;;;;;5036553;28;20217;-83
2023/07/16 10:09:58;;;;;;;2.88;2.05;;;24.40;1.00;;;;;;5053089;28;20260;-83
2023/07/16 10:12:25;;;;;;;3.42;1.95;;;24.30;1.00;;;;;;5054057;28;20241;-82
2023/07/16 10:14:52;;;;;;;3.38;2.15;;;24.40;99.90;;;;;;5036269;28;20197;-81
2023/07/16 10:17:22;;;;;;;2.65;2.10;;;24.40;1.00;;;;;;5035911;28;20194;-82
2023/07/16 10:20:15;;;;;;;3.63;2.10;;;24.40;1.00;;;;;;5035599;28;20170;-80
2023/07/16 10:22:42;;;;;;;3.22;2.05;;;24.50;99.90;;;;;;5053832;28;20172;-78
2023/07/16 10:25:29;;;;;;;4.72;2.20;;;24.40;99.90;;;;;;5053260;28;20193;-81
2023/07/16 10:27:55;;;;;;;5.07;1.92;;;24.50;99.90;;;;;;5035169;28;20702;-82
2023/07/16 10:30:22;;;;;;;4.63;2.00;;;24.90;99.90;;;;;;5034795;28;20174;-83
2023/07/16 10:32:50;;;;;;;4.03;2.20;;;24.80;1.00;;;;;;5035223;28;20170;-82
2023/07/16 10:35:15;;;;;;;2.88;1.90;;;24.40;99.90;;;;;;5052964;28;20190;-81
2023/07/16 10:37:41;;;;;;;2.25;1.90;;;24.20;99.90;;;;;;5035269;28;20565;-81
2023/07/16 10:40:11;;;;;;;5.75;2.30;;;24.40;99.90;;;;;;5053011;28;20261;-81
2023/07/16 10:42:37;;;;;;;3.47;2.10;;;24.40;99.90;;;;;;5035155;28;20201;-82
2023/07/16 10:45:04;;;;;;;3.65;2.00;;;24.40;99.90;;;;;;5053587;28;20221;-80
2023/07/16 10:47:30;;;;;;;2.75;2.28;;;24.20;99.90;;;;;;5053420;28;20207;-81
2023/07/16 10:49:56;;;;;;;2.58;1.80;;;24.30;99.90;;;;;;5034920;28;20553;-79
2023/07/16 10:52:23;;;;;;;3.92;2.22;;;24.70;99.90;;;;;;5035965;28;20181;-80
2023/07/16 10:54:51;;;;;;;3.00;1.98;;;24.90;99.90;;;;;;5054728;28;20691;-80
2023/07/16 10:57:19;;;;;;;3.83;1.90;;;24.90;99.90;;;;;;5054480;28;20678;-80
2023/07/16 10:59:45;;;;;;;3.97;1.98;;;25.30;99.90;;;;;;5053317;28;20643;-79
2023/07/16 11:02:13;;;;;;;3.72;1.80;;;25.20;99.90;;;;;;5035315;28;20219;-82
2023/07/16 11:04:39;;;;;;;4.68;2.22;;;24.70;99.90;;;;;;5053503;28;20675;-82
2023/07/16 11:07:11;;;;;;;4.15;1.98;;;24.60;99.90;;;;;;5052888;28;20174;-82
2023/07/16 11:09:44;;;;;;;3.45;1.90;;;24.80;99.90;;;;;;5034360;28;20174;-83
2023/07/16 11:12:12;;;;;;;3.50;2.03;;;25.10;99.90;;;;;;5034975;28;20177;-82
2023/07/16 11:14:39;;;;;;;2.20;1.65;;;25.40;99.90;;;;;;5034694;28;20198;-82
2023/07/16 11:17:09;;;;;;;3.35;1.90;;;25.20;99.90;;;;;;5052318;28;20205;-82
2023/07/16 11:19:36;;;;;;;3.78;2.05;;;24.70;99.90;;;;;;5034738;28;20263;-83
2023/07/16 11:22:03;;;;;;;3.67;1.88;;;24.60;99.90;;;;;;5034585;28;20173;-82
2023/07/16 11:24:29;;;;;;;3.75;1.92;;;24.90;99.90;;;;;;5035184;28;20174;-82
2023/07/16 11:26:56;;;;;;;2.90;1.85;;;25.20;99.90;;;;;;5034605;28;20219;-83
2023/07/16 11:29:23;;;;;;;3.55;2.00;;;25.30;99.90;;;;;;5052221;28;20170;-82
2023/07/16 11:31:50;;;;;;;3.25;2.10;;;25.10;99.90;;;;;;5034225;28;20177;-82
2023/07/16 11:34:16;;;;;;;3.22;1.88;;;25.00;99.90;;;;;;5034304;28;20227;-82
2023/07/16 11:36:42;;;;;;;3.03;1.70;;;25.10;99.90;;;;;;5034973;28;20585;-79
2023/07/16 11:39:10;;;;;;;2.85;1.80;;;25.40;99.90;;;;;;5036900;28;20171;-79
2023/07/16 11:41:35;;;;;;;4.15;1.88;;;25.20;99.90;;;;;;5022049;28;20572;-79
2023/07/16 11:44:07;;;;;;;2.50;1.80;;;25.00;99.90;;;;;;5034206;28;20173;-79
2023/07/16 11:46:33;;;;;;;4.28;1.70;;;25.10;99.90;;;;;;5026542;28;20277;-79
2023/07/16 11:49:00;;;;;;;4.15;2.17;;;25.50;99.90;;;;;;5050185;28;20189;-79
2023/07/16 11:51:26;;;;;;;5.70;1.98;;;25.70;99.90;;;;;;5032711;28;20182;-79
2023/07/16 11:53:51;;;;;;;4.80;2.00;;;25.80;99.90;;;;;;5051065;28;20670;-79
2023/07/16 11:56:17;;;;;;;4.28;1.88;;;25.90;99.90;;;;;;5031973;28;20201;-79
2023/07/16 11:58:42;;;;;;;4.32;2.22;;;26.20;99.90;;;;;;5041562;28;20633;-79
2023/07/16 12:01:08;;;;;;;3.50;2.00;;;26.20;99.90;;;;;;5031833;28;20188;-80
2023/07/16 12:03:34;;;;;;;3.03;1.95;;;26.30;99.90;;;;;;5032829;28;20653;-79
2023/07/16 12:05:59;;;;;;;2.78;1.70;;;26.20;99.90;;;;;;5087122;22;20228;-80
2023/07/16 12:08:25;;;;;;;3.47;1.90;;;25.80;99.90;;;;;;5073066;28;20527;-79
2023/07/16 12:10:51;;;;;;;2.20;1.90;;;25.30;99.90;;;;;;5087438;28;20180;-80
2023/07/16 12:13:16;;;;;;;3.30;1.90;;;25.20;99.90;;;;;;5074589;28;20196;-79
2023/07/16 12:15:42;;;;;;;3.45;2.00;;;25.50;99.90;;;;;;5072846;28;20227;-79
2023/07/16 12:18:07;;;;;;;2.75;1.70;;;25.30;99.90;;;;;;5073771;28;20209;-80
2023/07/16 12:20:34;;;;;;;3.28;1.83;;;25.40;99.90;;;;;;5073241;28;20173;-79
2023/07/16 12:23:00;;;;;;;3.90;1.98;;;25.60;99.90;;;;;;5075901;28;20177;-79
2023/07/16 12:25:25;;;;;;;4.68;2.88;;;25.80;99.90;;;;;;5077237;28;20280;-80
2023/07/16 12:27:51;;;;;;;3.50;1.73;;;26.20;99.90;;;;;;5078948;28;20176;-80
2023/07/16 12:30:16;;;;;;;4.63;1.95;;;26.40;99.90;;;;;;5077043;28;20173;-80
2023/07/16 12:32:42;;;;;;;1.80;1.70;;;26.40;99.90;;;;;;5077668;28;20234;-80
2023/07/16 12:35:08;;;;;;;2.70;1.80;;;26.10;99.90;;;;;;5079256;28;20564;-81
2023/07/16 12:37:33;;;;;;;2.53;2.00;;;25.80;99.90;;;;;;5078905;28;20197;-80
2023/07/16 12:39:59;;;;;;;5.70;2.10;;;25.60;99.90;;;;;;5077007;28;20169;-79
2023/07/16 12:42:24;;;;;;;3.80;2.13;;;25.50;99.90;;;;;;5077724;28;20172;-79
2023/07/16 12:44:50;;;;;;;2.17;1.98;;;25.50;99.90;;;;;;5077276;28;20161;-80